createdAt,value
2022-10-05T00:01:01.169Z,101088.66
2022-10-05T00:03:37.095Z,101095.28
2022-10-05T00:06:04.994Z,101094.03
2022-10-05T00:08:35.449Z,101100.03
2022-10-05T00:11:07.333Z,101093.78
2022-10-05T00:13:37.355Z,101089.03
2022-10-05T00:16:22.256Z,101091.09
2022-10-05T00:18:52.284Z,101092.72
2022-10-05T00:21:29.425Z,101092.53
2022-10-05T00:23:58.595Z,101085.25
2022-10-05T00:26:35.469Z,101086.28
2022-10-05T00:29:07.856Z,101081.06
2022-10-05T00:31:37.231Z,101086.47
2022-10-05T00:34:04.753Z,101083.75
2022-10-05T00:36:32.463Z,101081.47
2022-10-05T00:39:01.756Z,101071.50
2022-10-05T00:42:04.722Z,101074.56
2022-10-05T00:44:46.437Z,101067.72
2022-10-05T00:47:29.162Z,101074.34
2022-10-05T00:50:26.572Z,101077.63
2022-10-05T00:53:21.648Z,101069.75
2022-10-05T00:56:07.361Z,101072.88
2022-10-05T00:59:29.983Z,101065.59
2022-10-05T01:02:09.390Z,101078.03
2022-10-05T01:04:46.589Z,101085.88
2022-10-05T01:07:22.380Z,101083.44
2022-10-05T01:10:19.157Z,101079.47
2022-10-05T01:12:55.902Z,101091.91
2022-10-05T01:15:37.417Z,101098.34
2022-10-05T01:18:32.878Z,101102.47
2022-10-05T01:21:18.525Z,101097.06
2022-10-05T01:23:45.965Z,101105.41
2022-10-05T01:26:32.269Z,101107.66
2022-10-05T01:29:15.633Z,101105.59
2022-10-05T01:31:50.493Z,101102.91
2022-10-05T01:34:32.799Z,101107.47
2022-10-05T01:37:25.040Z,101115.69
2022-10-05T01:40:16.030Z,101114.81
2022-10-05T01:42:49.458Z,101121.03
2022-10-05T01:45:29.148Z,101118.28
2022-10-05T01:48:14.994Z,101118.25
2022-10-05T01:50:50.202Z,101112.28
2022-10-05T01:53:55.342Z,101116.00
2022-10-05T01:56:47.830Z,101106.25
2022-10-05T01:59:35.199Z,101112.84
2022-10-05T02:02:10.636Z,101120.31
2022-10-05T02:05:01.418Z,101126.72
2022-10-05T02:07:43.686Z,101121.53
2022-10-05T02:10:22.117Z,101124.59
2022-10-05T02:13:01.858Z,101126.84
2022-10-05T02:15:44.204Z,101134.28
2022-10-05T02:18:30.892Z,101131.00
2022-10-05T02:21:02.966Z,101130.81
2022-10-05T02:23:35.242Z,101134.19
2022-10-05T02:26:06.031Z,101133.31
2022-10-05T02:28:45.299Z,101126.94
2022-10-05T02:31:25.979Z,101136.69
2022-10-05T02:33:53.508Z,101133.69
2022-10-05T02:36:36.263Z,101132.78
2022-10-05T02:39:33.981Z,101131.94
2022-10-05T02:42:17.283Z,101133.62
2022-10-05T02:44:47.446Z,101140.72
2022-10-05T02:47:33.469Z,101141.25
2022-10-05T02:50:24.388Z,101142.88
2022-10-05T02:53:13.045Z,101137.78
2022-10-05T02:56:11.743Z,101139.19
2022-10-05T02:58:46.942Z,101141.25
2022-10-05T03:01:28.868Z,101144.78
2022-10-05T03:04:16.639Z,101145.81
2022-10-05T03:06:57.719Z,101141.66
2022-10-05T03:09:32.846Z,101143.31
2022-10-05T03:12:07.397Z,101137.66
2022-10-05T03:14:50.892Z,101134.53
2022-10-05T03:17:26.629Z,101133.91
2022-10-05T03:20:13.932Z,101127.09
2022-10-05T03:22:50.221Z,101116.72
2022-10-05T03:25:41.923Z,101120.97
2022-10-05T03:28:24.203Z,101119.97
2022-10-05T03:31:20.509Z,101120.12
2022-10-05T03:33:54.263Z,101120.53
2022-10-05T03:36:47.332Z,101117.19
2022-10-05T03:39:33.866Z,101122.78
2022-10-05T03:42:01.331Z,101120.34
2022-10-05T03:44:46.775Z,101127.38
2022-10-05T03:47:35.828Z,101127.03
2022-10-05T03:50:07.670Z,101132.41
2022-10-05T03:52:47.345Z,101128.22
2022-10-05T03:55:26.685Z,101137.12
2022-10-05T03:57:57.567Z,101141.97
2022-10-05T04:00:27.876Z,101150.44
2022-10-05T04:03:13.314Z,101145.59
2022-10-05T04:05:49.675Z,101146.72
2022-10-05T04:08:58.541Z,101152.94
2022-10-05T04:11:34.529Z,101142.16
2022-10-05T04:14:12.197Z,101143.53
2022-10-05T04:16:48.503Z,101150.25
2022-10-05T04:19:54.601Z,101150.25
2022-10-05T04:22:26.494Z,101145.41
2022-10-05T04:24:59.556Z,101150.16
2022-10-05T04:27:44.991Z,101148.09
2022-10-05T04:30:17.361Z,101147.44
2022-10-05T04:32:57.226Z,101153.22
2022-10-05T04:35:24.697Z,101150.53
2022-10-05T04:38:18.998Z,101150.34
2022-10-05T04:41:21.846Z,101160.09
2022-10-05T04:44:10.469Z,101156.75
2022-10-05T04:47:11.931Z,101155.63
2022-10-05T04:50:18.813Z,101160.53
2022-10-05T04:52:49.408Z,101158.50
2022-10-05T04:55:23.390Z,101159.16
2022-10-05T04:57:56.510Z,101162.69
2022-10-05T05:00:39.061Z,101166.75
2022-10-05T05:03:12.660Z,101155.97
2022-10-05T05:06:15.478Z,101155.63
2022-10-05T05:08:58.215Z,101157.75
2022-10-05T05:11:54.073Z,101149.16
2022-10-05T05:14:24.353Z,101150.62
2022-10-05T05:17:12.208Z,101155.63
2022-10-05T05:20:17.220Z,101150.12
2022-10-05T05:22:56.779Z,101152.88
2022-10-05T05:25:44.650Z,101153.22
2022-10-05T05:28:18.321Z,101158.87
2022-10-05T05:31:08.923Z,101154.31
2022-10-05T05:33:53.664Z,101151.06
2022-10-05T05:36:39.485Z,101158.81
2022-10-05T05:39:27.138Z,101160.97
2022-10-05T05:42:06.326Z,101171.38
2022-10-05T05:44:56.681Z,101172.66
2022-10-05T05:47:37.681Z,101185.00
2022-10-05T05:50:43.216Z,101179.84
2022-10-05T05:53:18.139Z,101186.72
2022-10-05T05:56:11.003Z,101196.97
2022-10-05T05:58:51.797Z,101197.47
2022-10-05T06:01:44.475Z,101208.31
2022-10-05T06:04:18.993Z,101209.25
2022-10-05T06:06:53.083Z,101208.47
2022-10-05T06:09:46.399Z,101209.16
2022-10-05T06:12:32.882Z,101215.88
2022-10-05T06:15:04.733Z,101225.69
2022-10-05T06:17:41.558Z,101233.66
2022-10-05T06:20:29.586Z,101240.13
2022-10-05T06:23:03.319Z,101252.00
2022-10-05T06:25:45.741Z,101254.13
2022-10-05T06:28:16.106Z,101261.03
2022-10-05T06:31:04.949Z,101258.31
2022-10-05T06:33:52.672Z,101254.53
2022-10-05T06:36:27.179Z,101255.09
2022-10-05T06:39:13.770Z,101253.56
2022-10-05T06:42:10.446Z,101263.50
2022-10-05T06:45:20.369Z,101267.16
2022-10-05T06:48:12.429Z,101275.03
2022-10-05T06:50:45.671Z,101269.12
2022-10-05T06:53:52.673Z,101276.16
2022-10-05T06:56:35.379Z,101272.66
2022-10-05T06:59:41.903Z,101270.72
2022-10-05T07:02:30.845Z,101278.28
2022-10-05T07:05:22.530Z,101284.37
2022-10-05T07:07:59.168Z,101286.53
2022-10-05T07:10:32.858Z,101296.34
2022-10-05T07:13:23.839Z,101301.50
2022-10-05T07:16:07.050Z,101301.63
2022-10-05T07:18:37.403Z,101298.50
2022-10-05T07:21:48.269Z,101295.41
2022-10-05T07:24:48.324Z,101285.09
2022-10-05T07:27:30.420Z,101282.22
2022-10-05T07:30:12.392Z,101282.84
2022-10-05T07:33:27.548Z,101302.47
2022-10-05T07:36:35.447Z,101311.41
2022-10-05T07:39:23.513Z,101310.12
2022-10-05T07:42:04.487Z,101304.59
2022-10-05T07:44:40.547Z,101311.63
2022-10-05T07:47:35.725Z,101303.53
2022-10-05T07:50:25.732Z,101287.56
2022-10-05T07:53:06.335Z,101291.28
2022-10-05T07:55:40.207Z,101297.47
2022-10-05T07:58:27.586Z,101296.44
2022-10-05T08:01:01.180Z,101300.88
2022-10-05T08:03:44.071Z,101306.28
2022-10-05T08:06:31.926Z,101313.22
2022-10-05T08:09:30.314Z,101314.69
2022-10-05T08:12:34.205Z,101314.41
2022-10-05T08:15:15.075Z,101316.31
2022-10-05T08:17:49.941Z,101314.97
2022-10-05T08:20:33.341Z,101312.94
2022-10-05T08:23:16.845Z,101296.91
2022-10-05T08:25:58.028Z,101290.47
2022-10-05T08:28:29.748Z,101286.09
2022-10-05T08:31:02.967Z,101281.22
2022-10-05T08:33:41.257Z,101273.25
2022-10-05T08:36:18.776Z,101276.28
2022-10-05T08:38:46.700Z,101279.25
2022-10-05T08:41:52.821Z,101287.75
2022-10-05T08:44:55.077Z,101293.25
2022-10-05T08:47:28.042Z,101277.56
2022-10-05T08:50:17.268Z,101268.78
2022-10-05T08:53:03.038Z,101272.38
2022-10-05T08:55:39.377Z,101272.09
2022-10-05T08:58:26.327Z,101266.25
2022-10-05T09:01:08.521Z,101269.25
2022-10-05T09:04:00.969Z,101266.31
2022-10-05T09:07:09.171Z,101269.25
2022-10-05T09:10:01.915Z,101279.75
2022-10-05T09:12:48.216Z,101283.00
2022-10-05T09:16:03.914Z,101286.75
2022-10-05T09:18:55.834Z,101294.44
2022-10-05T09:21:46.708Z,101299.13
2022-10-05T09:24:14.381Z,101308.13
2022-10-05T09:26:41.860Z,101307.59
2022-10-05T09:29:34.374Z,101299.69
2022-10-05T09:32:21.809Z,101299.19
2022-10-05T09:34:58.412Z,101300.47
2022-10-05T09:37:41.617Z,101300.94
2022-10-05T09:40:41.754Z,101291.56
2022-10-05T09:43:24.140Z,101302.59
2022-10-05T09:46:09.413Z,101305.44
2022-10-05T09:49:01.314Z,101287.13
2022-10-05T09:52:06.183Z,101295.13
2022-10-05T09:55:11.266Z,101288.31
2022-10-05T09:58:03.859Z,101290.59
2022-10-05T10:00:55.643Z,101292.62
2022-10-05T10:04:07.101Z,101293.22
2022-10-05T10:07:17.560Z,101285.22
2022-10-05T10:10:29.277Z,101288.66
2022-10-05T10:13:14.864Z,101279.88
2022-10-05T10:16:05.511Z,101282.22
2022-10-05T10:19:04.033Z,101283.50
2022-10-05T10:21:42.188Z,101283.09
2022-10-05T10:24:38.416Z,101290.16
2022-10-05T10:27:12.088Z,101282.75
2022-10-05T10:29:58.774Z,101290.63
2022-10-05T10:32:44.910Z,101289.81
2022-10-05T10:35:37.826Z,101284.28
2022-10-05T10:38:41.262Z,101285.78
2022-10-05T10:41:30.727Z,101298.41
2022-10-05T10:44:38.926Z,101284.59
2022-10-05T10:47:32.381Z,101292.78
2022-10-05T10:50:17.986Z,101289.56
2022-10-05T10:53:17.989Z,101286.78
2022-10-05T10:55:51.429Z,101285.84
2022-10-05T10:58:21.646Z,101284.50
2022-10-05T11:01:32.325Z,101282.50
2022-10-05T11:04:22.877Z,101291.56
2022-10-05T11:07:19.748Z,101292.09
2022-10-05T11:10:02.330Z,101289.12
2022-10-05T11:13:08.913Z,101287.53
2022-10-05T11:16:01.647Z,101291.66
2022-10-05T11:18:41.249Z,101280.84
2022-10-05T11:21:30.363Z,101280.84
2022-10-05T11:24:16.828Z,101268.97
2022-10-05T11:27:07.496Z,101268.78
2022-10-05T11:30:13.981Z,101271.37
2022-10-05T11:32:44.384Z,101271.22
2022-10-05T11:35:36.502Z,101261.94
2022-10-05T11:38:25.387Z,101260.09
2022-10-05T11:41:08.507Z,101251.59
2022-10-05T11:43:47.974Z,101251.03
2022-10-05T11:46:23.848Z,101251.97
2022-10-05T11:49:34.610Z,101250.75
2022-10-05T11:52:05.157Z,101244.25
2022-10-05T11:57:47.431Z,101241.59
2022-10-05T12:00:20.874Z,101225.88
2022-10-05T12:03:16.043Z,101230.00
2022-10-05T12:06:07.186Z,101225.69
2022-10-05T12:08:51.600Z,101223.63
2022-10-05T12:11:25.200Z,101217.31
2022-10-05T12:14:02.922Z,101212.00
2022-10-05T12:16:45.350Z,101215.03
2022-10-05T12:19:57.687Z,101212.91
2022-10-05T12:22:43.835Z,101210.44
2022-10-05T12:25:21.598Z,101212.72
2022-10-05T12:27:53.556Z,101220.63
2022-10-05T12:30:27.424Z,101207.75
2022-10-05T12:33:19.934Z,101209.13
2022-10-05T12:36:22.375Z,101211.88
2022-10-05T12:39:21.061Z,101210.25
2022-10-05T12:41:57.693Z,101201.41
2022-10-05T12:44:37.561Z,101208.78
2022-10-05T12:47:26.675Z,101195.28
2022-10-05T12:49:58.689Z,101187.84
2022-10-05T12:52:38.170Z,101191.25
2022-10-05T12:55:26.159Z,101187.34
2022-10-05T12:58:12.217Z,101192.34
2022-10-05T13:00:51.714Z,101188.69
2022-10-05T13:03:25.273Z,101178.97
2022-10-05T13:06:10.933Z,101179.09
2022-10-05T13:08:54.757Z,101177.22
2022-10-05T13:11:28.751Z,101192.59
2022-10-05T13:14:07.382Z,101194.34
2022-10-05T13:16:56.271Z,101184.47
2022-10-05T13:19:36.514Z,101185.63
2022-10-05T13:22:35.366Z,101182.59
2022-10-05T13:25:09.131Z,101176.50
2022-10-05T13:27:42.016Z,101177.34
2022-10-05T13:30:18.149Z,101173.41
2022-10-05T13:32:53.009Z,101170.66
2022-10-05T13:35:52.309Z,101167.91
2022-10-05T13:38:45.821Z,101169.59
2022-10-05T13:41:25.841Z,101177.34
2022-10-05T13:44:22.132Z,101171.34
2022-10-05T13:46:57.263Z,101163.41
2022-10-05T13:49:58.979Z,101168.87
2022-10-05T13:52:42.233Z,101165.31
2022-10-05T13:55:21.993Z,101162.56
2022-10-05T13:58:05.879Z,101169.16
2022-10-05T14:00:37.977Z,101160.62
2022-10-05T14:03:34.999Z,101158.44
2022-10-05T14:06:07.034Z,101163.38
2022-10-05T14:08:37.083Z,101157.62
2022-10-05T14:11:23.265Z,101159.53
2022-10-05T14:13:50.931Z,101161.75
2022-10-05T14:16:21.485Z,101168.34
2022-10-05T14:18:54.104Z,101173.00
2022-10-05T14:21:25.001Z,101173.00
2022-10-05T14:23:54.277Z,101170.81
2022-10-05T14:26:24.852Z,101166.97
2022-10-05T14:28:59.932Z,101162.84
2022-10-05T14:31:34.815Z,101166.94
2022-10-05T14:34:29.273Z,101164.72
2022-10-05T14:37:00.324Z,101165.56
2022-10-05T14:39:29.824Z,101156.47
2022-10-05T14:41:57.374Z,101161.97
2022-10-05T14:47:18.293Z,101159.69
2022-10-05T14:50:17.665Z,101164.91
2022-10-05T14:52:51.818Z,101153.62
2022-10-05T14:55:20.110Z,101155.50
2022-10-05T14:58:17.099Z,101153.88
2022-10-05T15:00:57.346Z,101165.13
2022-10-05T15:03:49.294Z,101164.25
2022-10-05T15:06:38.198Z,101160.13
2022-10-05T15:09:17.577Z,101151.84
2022-10-05T15:11:56.772Z,101152.94
2022-10-05T15:14:40.089Z,101149.06
2022-10-05T15:17:35.123Z,101141.09
2022-10-05T15:20:24.902Z,101137.44
2022-10-05T15:22:52.368Z,101125.37
2022-10-05T15:25:27.867Z,101129.44
2022-10-05T15:28:21.461Z,101137.38
2022-10-05T15:31:00.165Z,101143.94
2022-10-05T15:33:28.760Z,101152.06
2022-10-05T15:36:02.180Z,101145.19
2022-10-05T15:38:38.347Z,101124.00
2022-10-05T15:41:24.827Z,101114.69
2022-10-05T15:44:15.677Z,101116.25
2022-10-05T15:46:56.518Z,101123.38
2022-10-05T15:49:36.921Z,101122.78
2022-10-05T15:52:17.701Z,101129.00
2022-10-05T15:55:35.223Z,101120.16
2022-10-05T15:58:25.772Z,101135.72
2022-10-05T16:01:04.950Z,101129.53
2022-10-05T16:03:47.312Z,101123.16
2022-10-05T16:06:51.125Z,101132.09
2022-10-05T16:09:36.832Z,101129.00
2022-10-05T16:12:10.438Z,101135.09
2022-10-05T16:15:09.626Z,101139.94
2022-10-05T16:17:55.497Z,101139.53
2022-10-05T16:20:38.462Z,101139.97
2022-10-05T16:23:29.803Z,101138.69
2022-10-05T16:26:09.048Z,101141.72
2022-10-05T16:29:00.991Z,101145.47
2022-10-05T16:32:05.985Z,101145.78
2022-10-05T16:34:33.488Z,101148.87
2022-10-05T16:37:38.322Z,101149.47
2022-10-05T16:40:22.235Z,101152.28
2022-10-05T16:43:49.274Z,101154.50
2022-10-05T16:46:36.666Z,101161.47
2022-10-05T16:49:18.203Z,101154.41
2022-10-05T16:52:01.940Z,101155.87
2022-10-05T16:54:43.172Z,101151.56
2022-10-05T16:57:23.603Z,101157.66
2022-10-05T17:00:15.050Z,101161.63
2022-10-05T17:03:02.194Z,101164.75
2022-10-05T17:05:45.881Z,101175.19
2022-10-05T17:08:44.565Z,101177.00
2022-10-05T17:11:36.978Z,101178.56
2022-10-05T17:14:22.878Z,101189.03
2022-10-05T17:16:59.394Z,101180.97
2022-10-05T17:19:54.044Z,101187.00
2022-10-05T17:22:50.742Z,101187.97
2022-10-05T17:25:47.426Z,101194.75
2022-10-05T17:28:42.236Z,101196.03
2022-10-05T17:31:09.923Z,101191.78
2022-10-05T17:34:00.243Z,101188.34
2022-10-05T17:36:49.581Z,101190.97
2022-10-05T17:39:25.772Z,101194.41
2022-10-05T17:41:54.041Z,101192.84
2022-10-05T17:44:26.216Z,101199.25
2022-10-05T17:47:04.877Z,101196.66
2022-10-05T17:50:08.164Z,101203.88
2022-10-05T17:52:53.878Z,101195.94
2022-10-05T17:55:44.740Z,101205.50
2022-10-05T17:58:24.570Z,101202.19
2022-10-05T18:01:07.095Z,101206.44
2022-10-05T18:03:43.997Z,101200.88
2022-10-05T18:06:26.496Z,101196.37
2022-10-05T18:09:17.483Z,101197.06
2022-10-05T18:12:17.936Z,101192.78
2022-10-05T18:14:57.518Z,101194.31
2022-10-05T18:17:59.623Z,101193.72
2022-10-05T18:20:27.295Z,101190.03
2022-10-05T18:23:23.872Z,101198.06
2022-10-05T18:26:05.708Z,101195.19
2022-10-05T18:28:52.714Z,101195.06
2022-10-05T18:32:02.897Z,101199.09
2022-10-05T18:35:02.290Z,101205.81
2022-10-05T18:38:12.061Z,101210.34
2022-10-05T18:40:53.373Z,101202.28
2022-10-05T18:43:30.033Z,101207.94
2022-10-05T18:46:28.423Z,101204.22
2022-10-05T18:49:06.181Z,101199.84
2022-10-05T18:52:04.880Z,101191.06
2022-10-05T18:54:57.727Z,101193.66
2022-10-05T18:58:04.459Z,101194.22
2022-10-05T19:00:51.375Z,101195.87
2022-10-05T19:03:49.552Z,101193.84
2022-10-05T19:06:37.334Z,101191.00
2022-10-05T19:09:20.149Z,101190.22
2022-10-05T19:12:05.702Z,101198.84
2022-10-05T19:14:54.469Z,101194.16
2022-10-05T19:17:54.415Z,101198.41
2022-10-05T19:20:24.933Z,101198.41
2022-10-05T19:23:02.153Z,101201.34
2022-10-05T19:25:41.171Z,101200.94
2022-10-05T19:28:17.161Z,101194.31
2022-10-05T19:30:50.965Z,101200.44
2022-10-05T19:33:33.530Z,101203.00
2022-10-05T19:36:19.542Z,101203.31
2022-10-05T19:39:05.719Z,101201.62
2022-10-05T19:41:43.199Z,101211.47
2022-10-05T19:44:35.319Z,101211.88
2022-10-05T19:47:17.476Z,101211.50
2022-10-05T19:49:55.288Z,101215.28
2022-10-05T19:52:43.407Z,101219.28
2022-10-05T19:55:23.204Z,101212.03
2022-10-05T19:57:52.106Z,101219.78
2022-10-05T20:00:37.725Z,101221.91
2022-10-05T20:03:29.731Z,101224.00
2022-10-05T20:06:02.406Z,101230.50
2022-10-05T20:08:44.289Z,101225.47
2022-10-05T20:11:14.641Z,101233.25
2022-10-05T20:13:45.377Z,101231.59
2022-10-05T20:16:46.142Z,101230.00
2022-10-05T20:19:49.779Z,101230.44
2022-10-05T20:22:26.236Z,101237.97
2022-10-05T20:24:56.595Z,101242.34
2022-10-05T20:27:53.173Z,101243.41
2022-10-05T20:30:25.387Z,101245.69
2022-10-05T20:32:57.556Z,101239.63
2022-10-05T20:35:27.810Z,101246.94
2022-10-05T20:37:59.074Z,101255.03
2022-10-05T20:40:31.035Z,101236.87
2022-10-05T20:42:59.271Z,101239.56
2022-10-05T20:45:26.777Z,101241.41
2022-10-05T20:47:55.010Z,101246.16
2022-10-05T20:50:24.612Z,101249.94
2022-10-05T20:52:52.878Z,101247.06
2022-10-05T20:55:20.899Z,101247.28
2022-10-05T20:57:51.299Z,101241.25
2022-10-05T21:00:20.902Z,101242.28
2022-10-05T21:02:48.385Z,101239.81
2022-10-05T21:05:18.060Z,101244.84
2022-10-05T21:07:45.964Z,101252.00
2022-10-05T21:10:14.257Z,101244.72
2022-10-05T21:12:42.129Z,101247.69
2022-10-05T21:15:10.443Z,101249.59
2022-10-05T21:17:38.024Z,101244.00
2022-10-05T21:20:05.897Z,101246.94
2022-10-05T21:22:35.469Z,101244.66
2022-10-05T21:25:02.957Z,101248.59
2022-10-05T21:27:31.076Z,101244.00
2022-10-05T21:29:58.564Z,101239.84
2022-10-05T21:32:26.079Z,101251.56
2022-10-05T21:34:57.210Z,101240.31
2022-10-05T21:37:26.834Z,101246.19
2022-10-05T21:39:54.326Z,101245.34
2022-10-05T21:42:23.515Z,101244.31
2022-10-05T21:44:53.550Z,101237.00
2022-10-05T21:47:21.064Z,101234.94
2022-10-05T21:49:48.609Z,101246.22
2022-10-05T21:52:16.193Z,101245.22
2022-10-05T21:54:43.718Z,101236.87
2022-10-05T21:57:12.999Z,101244.19
2022-10-05T21:59:43.597Z,101239.44
2022-10-05T22:02:11.073Z,101244.06
2022-10-05T22:04:38.608Z,101234.25
2022-10-05T22:07:20.473Z,101239.69
2022-10-05T22:09:49.474Z,101237.19
2022-10-05T22:12:20.791Z,101224.91
2022-10-05T22:14:49.677Z,101222.41
2022-10-05T22:17:27.327Z,101225.97
2022-10-05T22:19:58.017Z,101223.28
2022-10-05T22:22:26.932Z,101225.38
2022-10-05T22:24:55.260Z,101220.56
2022-10-05T22:27:28.526Z,101220.34
2022-10-05T22:29:57.145Z,101229.72
2022-10-05T22:32:25.289Z,101217.63
2022-10-05T22:34:55.514Z,101212.63
2022-10-05T22:37:23.018Z,101213.03
2022-10-05T22:39:50.806Z,101219.31
2022-10-05T22:42:18.256Z,101220.53
2022-10-05T22:44:48.121Z,101219.91
2022-10-05T22:47:15.625Z,101215.09
2022-10-05T22:49:45.241Z,101217.63
2022-10-05T22:52:12.752Z,101210.53
2022-10-05T22:54:40.277Z,101217.22
2022-10-05T22:57:08.233Z,101212.41
2022-10-05T22:59:35.734Z,101213.50
2022-10-05T23:02:04.488Z,101213.50
2022-10-05T23:04:32.117Z,101207.03
2022-10-05T23:06:59.640Z,101205.12
2022-10-05T23:09:27.203Z,101205.12
2022-10-05T23:11:54.674Z,101208.28
2022-10-05T23:14:24.879Z,101195.56
2022-10-05T23:16:52.464Z,101194.53
2022-10-05T23:19:19.999Z,101178.50
2022-10-05T23:21:47.453Z,101199.28
2022-10-05T23:24:14.930Z,101187.81
2022-10-05T23:26:42.403Z,101195.06
2022-10-05T23:29:10.005Z,101195.06
2022-10-05T23:31:37.497Z,101183.78
2022-10-05T23:34:04.990Z,101183.41
2022-10-05T23:36:35.894Z,101183.78
2022-10-05T23:39:08.363Z,101187.56
2022-10-05T23:41:35.822Z,101182.97
2022-10-05T23:44:03.348Z,101186.72
2022-10-05T23:46:30.826Z,101189.66
2022-10-05T23:48:58.365Z,101188.38
2022-10-05T23:51:27.978Z,101192.97
2022-10-05T23:53:55.490Z,101186.72
2022-10-05T23:56:23.222Z,101177.53
2022-10-05T23:58:50.722Z,101187.56
